sensor_id;sensor_type;location;lat;lon;timestamp;P1;durP1;ratioP1;P2;durP2;ratioP2
52608;SDS011;38503;48.544;12.142;2022-12-08T00:01:28;13.70;;;10.13;;
52608;SDS011;38503;48.544;12.142;2022-12-08T00:03:57;18.53;;;10.90;;
52608;SDS011;38503;48.544;12.142;2022-12-08T00:06:28;17.13;;;11.80;;
52608;SDS011;38503;48.544;12.142;2022-12-08T00:09:18;20.83;;;12.00;;
52608;SDS011;38503;48.544;12.142;2022-12-08T00:11:48;17.97;;;12.83;;
52608;SDS011;38503;48.544;12.142;2022-12-08T00:14:15;17.77;;;11.90;;
52608;SDS011;38503;48.544;12.142;2022-12-08T00:16:42;16.20;;;11.67;;
52608;SDS011;38503;48.544;12.142;2022-12-08T00:19:09;17.33;;;11.90;;
52608;SDS011;38503;48.544;12.142;2022-12-08T00:21:36;16.73;;;11.40;;
52608;SDS011;38503;48.544;12.142;2022-12-08T00:24:03;16.37;;;11.43;;
52608;SDS011;38503;48.544;12.142;2022-12-08T00:26:30;16.73;;;11.77;;
52608;SDS011;38503;48.544;12.142;2022-12-08T00:28:56;17.63;;;12.40;;
52608;SDS011;38503;48.544;12.142;2022-12-08T00:31:23;18.97;;;13.20;;
52608;SDS011;38503;48.544;12.142;2022-12-08T00:33:50;17.87;;;13.07;;
52608;SDS011;38503;48.544;12.142;2022-12-08T00:36:17;17.23;;;12.27;;
52608;SDS011;38503;48.544;12.142;2022-12-08T00:38:44;21.17;;;12.90;;
52608;SDS011;38503;48.544;12.142;2022-12-08T00:41:17;17.60;;;12.47;;
52608;SDS011;38503;48.544;12.142;2022-12-08T00:44:10;21.33;;;14.03;;
52608;SDS011;38503;48.544;12.142;2022-12-08T00:46:38;19.23;;;13.43;;
52608;SDS011;38503;48.544;12.142;2022-12-08T00:49:06;17.77;;;13.00;;
52608;SDS011;38503;48.544;12.142;2022-12-08T00:51:33;19.70;;;12.83;;
52608;SDS011;38503;48.544;12.142;2022-12-08T00:54:00;17.00;;;12.17;;
52608;SDS011;38503;48.544;12.142;2022-12-08T00:56:27;19.50;;;13.70;;
52608;SDS011;38503;48.544;12.142;2022-12-08T00:58:54;19.37;;;12.97;;
52608;SDS011;38503;48.544;12.142;2022-12-08T01:01:21;18.40;;;12.93;;
52608;SDS011;38503;48.544;12.142;2022-12-08T01:03:51;16.57;;;12.30;;
52608;SDS011;38503;48.544;12.142;2022-12-08T01:06:18;21.60;;;13.87;;
52608;SDS011;38503;48.544;12.142;2022-12-08T01:08:45;19.13;;;13.40;;
52608;SDS011;38503;48.544;12.142;2022-12-08T01:11:13;17.53;;;12.10;;
52608;SDS011;38503;48.544;12.142;2022-12-08T01:13:41;18.53;;;13.17;;
52608;SDS011;38503;48.544;12.142;2022-12-08T01:16:24;26.20;;;12.90;;
52608;SDS011;38503;48.544;12.142;2022-12-08T01:19:00;16.00;;;12.03;;
52608;SDS011;38503;48.544;12.142;2022-12-08T01:21:27;19.30;;;12.73;;
52608;SDS011;38503;48.544;12.142;2022-12-08T01:23:58;18.23;;;12.90;;
52608;SDS011;38503;48.544;12.142;2022-12-08T01:26:25;17.67;;;13.00;;
52608;SDS011;38503;48.544;12.142;2022-12-08T01:28:52;17.90;;;13.33;;
52608;SDS011;38503;48.544;12.142;2022-12-08T01:31:20;19.17;;;13.23;;
52608;SDS011;38503;48.544;12.142;2022-12-08T01:33:48;20.40;;;13.20;;
52608;SDS011;38503;48.544;12.142;2022-12-08T01:36:22;25.17;;;14.47;;
52608;SDS011;38503;48.544;12.142;2022-12-08T01:38:50;18.13;;;14.00;;
52608;SDS011;38503;48.544;12.142;2022-12-08T01:41:19;21.00;;;13.83;;
52608;SDS011;38503;48.544;12.142;2022-12-08T01:46:19;21.10;;;14.20;;
52608;SDS011;38503;48.544;12.142;2022-12-08T01:48:47;22.80;;;14.37;;
52608;SDS011;38503;48.544;12.142;2022-12-08T01:51:15;19.50;;;13.17;;
52608;SDS011;38503;48.544;12.142;2022-12-08T01:53:43;19.73;;;12.70;;
52608;SDS011;38503;48.544;12.142;2022-12-08T01:56:11;17.80;;;12.97;;
52608;SDS011;38503;48.544;12.142;2022-12-08T01:58:51;19.93;;;13.13;;
52608;SDS011;38503;48.544;12.142;2022-12-08T02:01:20;17.33;;;12.77;;
52608;SDS011;38503;48.544;12.142;2022-12-08T02:03:49;17.47;;;12.83;;
52608;SDS011;38503;48.544;12.142;2022-12-08T02:06:25;18.03;;;12.93;;
52608;SDS011;38503;48.544;12.142;2022-12-08T02:08:54;18.97;;;12.40;;
52608;SDS011;38503;48.544;12.142;2022-12-08T02:11:23;22.13;;;13.30;;
52608;SDS011;38503;48.544;12.142;2022-12-08T03:07:37;19.03;;;13.50;;
52608;SDS011;38503;48.544;12.142;2022-12-08T03:10:13;20.70;;;14.17;;
52608;SDS011;38503;48.544;12.142;2022-12-08T03:12:47;18.20;;;13.40;;
52608;SDS011;38503;48.544;12.142;2022-12-08T03:15:24;17.57;;;13.27;;
52608;SDS011;38503;48.544;12.142;2022-12-08T03:17:53;21.60;;;14.20;;
52608;SDS011;38503;48.544;12.142;2022-12-08T03:20:23;18.20;;;12.63;;
52608;SDS011;38503;48.544;12.142;2022-12-08T04:01:31;19.80;;;13.67;;
52608;SDS011;38503;48.544;12.142;2022-12-08T04:22:52;22.47;;;14.70;;
52608;SDS011;38503;48.544;12.142;2022-12-08T04:25:19;22.17;;;13.60;;
52608;SDS011;38503;48.544;12.142;2022-12-08T04:27:46;25.53;;;14.60;;
52608;SDS011;38503;48.544;12.142;2022-12-08T04:30:13;21.73;;;14.07;;
52608;SDS011;38503;48.544;12.142;2022-12-08T04:32:40;17.93;;;13.40;;
52608;SDS011;38503;48.544;12.142;2022-12-08T04:35:12;21.23;;;14.90;;
52608;SDS011;38503;48.544;12.142;2022-12-08T04:37:40;19.73;;;14.43;;
52608;SDS011;38503;48.544;12.142;2022-12-08T04:40:08;20.57;;;13.93;;
52608;SDS011;38503;48.544;12.142;2022-12-08T04:42:36;21.10;;;14.77;;
52608;SDS011;38503;48.544;12.142;2022-12-08T04:45:03;19.00;;;14.20;;
52608;SDS011;38503;48.544;12.142;2022-12-08T04:47:31;21.80;;;14.87;;
52608;SDS011;38503;48.544;12.142;2022-12-08T04:49:58;20.47;;;14.50;;
52608;SDS011;38503;48.544;12.142;2022-12-08T04:52:25;19.80;;;14.17;;
52608;SDS011;38503;48.544;12.142;2022-12-08T04:54:52;21.80;;;14.33;;
52608;SDS011;38503;48.544;12.142;2022-12-08T04:57:19;21.73;;;14.50;;
52608;SDS011;38503;48.544;12.142;2022-12-08T04:59:46;20.60;;;14.27;;
52608;SDS011;38503;48.544;12.142;2022-12-08T05:02:12;20.03;;;14.07;;
52608;SDS011;38503;48.544;12.142;2022-12-08T05:04:40;20.47;;;15.03;;
52608;SDS011;38503;48.544;12.142;2022-12-08T05:07:06;18.57;;;13.67;;
52608;SDS011;38503;48.544;12.142;2022-12-08T05:09:33;22.27;;;14.23;;
52608;SDS011;38503;48.544;12.142;2022-12-08T05:12:00;22.43;;;14.70;;
52608;SDS011;38503;48.544;12.142;2022-12-08T05:14:27;22.77;;;14.80;;
52608;SDS011;38503;48.544;12.142;2022-12-08T05:16:54;24.47;;;15.60;;
52608;SDS011;38503;48.544;12.142;2022-12-08T05:19:21;21.67;;;14.80;;
52608;SDS011;38503;48.544;12.142;2022-12-08T05:21:48;21.30;;;15.40;;
52608;SDS011;38503;48.544;12.142;2022-12-08T05:24:15;20.20;;;14.83;;
52608;SDS011;38503;48.544;12.142;2022-12-08T05:26:42;24.80;;;15.23;;
52608;SDS011;38503;48.544;12.142;2022-12-08T05:29:08;26.00;;;15.60;;
52608;SDS011;38503;48.544;12.142;2022-12-08T05:31:35;20.40;;;15.00;;
52608;SDS011;38503;48.544;12.142;2022-12-08T05:34:02;22.50;;;15.93;;
52608;SDS011;38503;48.544;12.142;2022-12-08T05:36:29;21.13;;;15.13;;
52608;SDS011;38503;48.544;12.142;2022-12-08T05:38:56;21.43;;;15.40;;
52608;SDS011;38503;48.544;12.142;2022-12-08T05:41:23;20.77;;;14.27;;
52608;SDS011;38503;48.544;12.142;2022-12-08T05:43:50;24.87;;;16.20;;
52608;SDS011;38503;48.544;12.142;2022-12-08T05:46:17;21.07;;;14.80;;
52608;SDS011;38503;48.544;12.142;2022-12-08T05:48:44;20.40;;;14.20;;
52608;SDS011;38503;48.544;12.142;2022-12-08T05:51:18;19.70;;;14.73;;
52608;SDS011;38503;48.544;12.142;2022-12-08T05:53:47;22.43;;;15.33;;
52608;SDS011;38503;48.544;12.142;2022-12-08T05:56:15;19.90;;;13.73;;
52608;SDS011;38503;48.544;12.142;2022-12-08T05:58:43;19.80;;;13.97;;
52608;SDS011;38503;48.544;12.142;2022-12-08T06:01:20;21.30;;;13.93;;
52608;SDS011;38503;48.544;12.142;2022-12-08T06:03:47;22.20;;;15.53;;
52608;SDS011;38503;48.544;12.142;2022-12-08T06:06:14;23.03;;;14.90;;
52608;SDS011;38503;48.544;12.142;2022-12-08T06:08:41;20.57;;;15.37;;
52608;SDS011;38503;48.544;12.142;2022-12-08T06:11:08;23.67;;;15.43;;
52608;SDS011;38503;48.544;12.142;2022-12-08T06:13:35;22.37;;;14.87;;
52608;SDS011;38503;48.544;12.142;2022-12-08T06:16:05;27.27;;;16.50;;
52608;SDS011;38503;48.544;12.142;2022-12-08T06:18:33;26.87;;;15.87;;
52608;SDS011;38503;48.544;12.142;2022-12-08T06:21:07;23.83;;;16.13;;
52608;SDS011;38503;48.544;12.142;2022-12-08T06:23:36;24.57;;;15.63;;
52608;SDS011;38503;48.544;12.142;2022-12-08T06:26:04;23.37;;;15.40;;
52608;SDS011;38503;48.544;12.142;2022-12-08T06:28:33;25.33;;;17.08;;
52608;SDS011;38503;48.544;12.142;2022-12-08T06:31:05;24.10;;;16.23;;
52608;SDS011;38503;48.544;12.142;2022-12-08T06:33:38;24.67;;;16.67;;
52608;SDS011;38503;48.544;12.142;2022-12-08T06:36:05;28.30;;;17.10;;
52608;SDS011;38503;48.544;12.142;2022-12-08T06:38:32;29.13;;;16.60;;
52608;SDS011;38503;48.544;12.142;2022-12-08T06:41:05;23.70;;;16.27;;
52608;SDS011;38503;48.544;12.142;2022-12-08T06:43:32;26.03;;;17.47;;
52608;SDS011;38503;48.544;12.142;2022-12-08T06:46:00;25.13;;;17.43;;
52608;SDS011;38503;48.544;12.142;2022-12-08T06:48:27;29.27;;;16.50;;
52608;SDS011;38503;48.544;12.142;2022-12-08T06:50:54;26.20;;;16.57;;
52608;SDS011;38503;48.544;12.142;2022-12-08T06:53:21;23.50;;;16.33;;
52608;SDS011;38503;48.544;12.142;2022-12-08T06:55:51;26.00;;;16.70;;
52608;SDS011;38503;48.544;12.142;2022-12-08T06:58:25;27.77;;;16.90;;
52608;SDS011;38503;48.544;12.142;2022-12-08T07:00:52;23.43;;;16.17;;
52608;SDS011;38503;48.544;12.142;2022-12-08T07:03:20;30.63;;;16.73;;
52608;SDS011;38503;48.544;12.142;2022-12-08T07:05:47;26.27;;;17.13;;
52608;SDS011;38503;48.544;12.142;2022-12-08T07:08:28;23.97;;;16.40;;
52608;SDS011;38503;48.544;12.142;2022-12-08T07:10:55;26.53;;;18.00;;
52608;SDS011;38503;48.544;12.142;2022-12-08T07:13:22;32.37;;;19.63;;
52608;SDS011;38503;48.544;12.142;2022-12-08T07:15:49;27.07;;;17.60;;
52608;SDS011;38503;48.544;12.142;2022-12-08T07:18:16;26.00;;;17.10;;
52608;SDS011;38503;48.544;12.142;2022-12-08T07:20:43;27.27;;;18.27;;
52608;SDS011;38503;48.544;12.142;2022-12-08T07:23:10;30.20;;;18.60;;
52608;SDS011;38503;48.544;12.142;2022-12-08T07:25:37;29.50;;;16.90;;
52608;SDS011;38503;48.544;12.142;2022-12-08T07:28:08;27.40;;;18.73;;
52608;SDS011;38503;48.544;12.142;2022-12-08T07:30:36;23.93;;;16.00;;
52608;SDS011;38503;48.544;12.142;2022-12-08T07:33:04;24.17;;;17.37;;
52608;SDS011;38503;48.544;12.142;2022-12-08T07:35:31;26.83;;;17.10;;
52608;SDS011;38503;48.544;12.142;2022-12-08T07:38:00;29.47;;;17.03;;
52608;SDS011;38503;48.544;12.142;2022-12-08T07:40:27;26.83;;;17.77;;
52608;SDS011;38503;48.544;12.142;2022-12-08T07:42:54;26.77;;;17.77;;
52608;SDS011;38503;48.544;12.142;2022-12-08T07:45:21;28.47;;;17.80;;
52608;SDS011;38503;48.544;12.142;2022-12-08T07:47:56;24.33;;;17.33;;
52608;SDS011;38503;48.544;12.142;2022-12-08T07:50:23;25.83;;;17.27;;
52608;SDS011;38503;48.544;12.142;2022-12-08T07:52:50;24.17;;;16.73;;
52608;SDS011;38503;48.544;12.142;2022-12-08T07:55:17;28.50;;;17.80;;
52608;SDS011;38503;48.544;12.142;2022-12-08T07:57:43;25.83;;;17.47;;
52608;SDS011;38503;48.544;12.142;2022-12-08T08:00:10;27.20;;;17.57;;
52608;SDS011;38503;48.544;12.142;2022-12-08T08:02:38;26.77;;;17.27;;
52608;SDS011;38503;48.544;12.142;2022-12-08T08:05:05;25.77;;;17.67;;
52608;SDS011;38503;48.544;12.142;2022-12-08T08:07:33;26.57;;;17.90;;
52608;SDS011;38503;48.544;12.142;2022-12-08T08:10:00;24.73;;;17.40;;
52608;SDS011;38503;48.544;12.142;2022-12-08T08:12:27;26.37;;;17.33;;
52608;SDS011;38503;48.544;12.142;2022-12-08T08:14:57;28.10;;;18.03;;
52608;SDS011;38503;48.544;12.142;2022-12-08T08:17:28;25.03;;;17.63;;
52608;SDS011;38503;48.544;12.142;2022-12-08T08:19:55;24.70;;;17.73;;
52608;SDS011;38503;48.544;12.142;2022-12-08T08:22:23;29.13;;;18.37;;
52608;SDS011;38503;48.544;12.142;2022-12-08T08:24:51;24.43;;;17.10;;
52608;SDS011;38503;48.544;12.142;2022-12-08T08:27:19;25.00;;;16.97;;
52608;SDS011;38503;48.544;12.142;2022-12-08T08:29:46;28.03;;;17.53;;
52608;SDS011;38503;48.544;12.142;2022-12-08T08:32:13;22.93;;;16.77;;
52608;SDS011;38503;48.544;12.142;2022-12-08T08:34:39;23.23;;;17.07;;
52608;SDS011;38503;48.544;12.142;2022-12-08T08:37:06;28.67;;;18.30;;
52608;SDS011;38503;48.544;12.142;2022-12-08T08:39:34;26.83;;;18.60;;
52608;SDS011;38503;48.544;12.142;2022-12-08T08:42:01;29.13;;;18.50;;
52608;SDS011;38503;48.544;12.142;2022-12-08T08:44:28;28.10;;;18.23;;
52608;SDS011;38503;48.544;12.142;2022-12-08T08:46:55;24.40;;;17.10;;
52608;SDS011;38503;48.544;12.142;2022-12-08T08:49:22;27.20;;;17.23;;
52608;SDS011;38503;48.544;12.142;2022-12-08T08:51:49;29.30;;;18.17;;
52608;SDS011;38503;48.544;12.142;2022-12-08T08:54:16;28.57;;;17.77;;
52608;SDS011;38503;48.544;12.142;2022-12-08T08:56:43;24.77;;;17.43;;
52608;SDS011;38503;48.544;12.142;2022-12-08T08:59:10;24.57;;;17.40;;
52608;SDS011;38503;48.544;12.142;2022-12-08T09:01:37;27.43;;;18.53;;
52608;SDS011;38503;48.544;12.142;2022-12-08T09:04:04;28.13;;;18.00;;
52608;SDS011;38503;48.544;12.142;2022-12-08T09:06:31;24.73;;;17.97;;
52608;SDS011;38503;48.544;12.142;2022-12-08T09:08:58;27.77;;;17.90;;
52608;SDS011;38503;48.544;12.142;2022-12-08T09:11:24;27.67;;;17.73;;
52608;SDS011;38503;48.544;12.142;2022-12-08T09:13:52;26.90;;;17.50;;
52608;SDS011;38503;48.544;12.142;2022-12-08T09:16:19;24.23;;;17.13;;
52608;SDS011;38503;48.544;12.142;2022-12-08T09:18:47;23.33;;;17.13;;
52608;SDS011;38503;48.544;12.142;2022-12-08T09:21:18;27.63;;;17.87;;
52608;SDS011;38503;48.544;12.142;2022-12-08T09:23:55;24.77;;;17.57;;
52608;SDS011;38503;48.544;12.142;2022-12-08T09:26:24;29.33;;;18.20;;
52608;SDS011;38503;48.544;12.142;2022-12-08T09:28:52;26.97;;;18.77;;
52608;SDS011;38503;48.544;12.142;2022-12-08T09:31:21;27.60;;;18.70;;
52608;SDS011;38503;48.544;12.142;2022-12-08T09:33:49;29.50;;;19.00;;
52608;SDS011;38503;48.544;12.142;2022-12-08T09:36:16;32.13;;;22.07;;
52608;SDS011;38503;48.544;12.142;2022-12-08T09:38:44;75.67;;;64.43;;
52608;SDS011;38503;48.544;12.142;2022-12-08T09:41:16;117.73;;;85.13;;
52608;SDS011;38503;48.544;12.142;2022-12-08T09:43:51;31.00;;;21.90;;
52608;SDS011;38503;48.544;12.142;2022-12-08T09:46:38;27.83;;;20.30;;
52608;SDS011;38503;48.544;12.142;2022-12-08T09:49:10;32.23;;;22.97;;
52608;SDS011;38503;48.544;12.142;2022-12-08T09:51:40;34.83;;;23.53;;
52608;SDS011;38503;48.544;12.142;2022-12-08T09:54:15;36.40;;;21.47;;
52608;SDS011;38503;48.544;12.142;2022-12-08T09:57:02;33.17;;;22.63;;
52608;SDS011;38503;48.544;12.142;2022-12-08T09:59:36;32.63;;;23.87;;
52608;SDS011;38503;48.544;12.142;2022-12-08T10:02:08;32.67;;;23.93;;
52608;SDS011;38503;48.544;12.142;2022-12-08T10:04:48;31.77;;;22.23;;
52608;SDS011;38503;48.544;12.142;2022-12-08T10:07:37;33.77;;;22.73;;
52608;SDS011;38503;48.544;12.142;2022-12-08T10:10:28;36.47;;;23.10;;
52608;SDS011;38503;48.544;12.142;2022-12-08T10:13:21;30.33;;;20.60;;
52608;SDS011;38503;48.544;12.142;2022-12-08T10:18:33;30.50;;;21.23;;
52608;SDS011;38503;48.544;12.142;2022-12-08T10:21:16;31.17;;;21.03;;
52608;SDS011;38503;48.544;12.142;2022-12-08T10:23:52;27.23;;;20.90;;
52608;SDS011;38503;48.544;12.142;2022-12-08T10:26:23;29.47;;;21.30;;
52608;SDS011;38503;48.544;12.142;2022-12-08T10:28:50;29.93;;;20.80;;
52608;SDS011;38503;48.544;12.142;2022-12-08T10:31:21;27.43;;;19.83;;
52608;SDS011;38503;48.544;12.142;2022-12-08T10:33:56;31.77;;;20.80;;
52608;SDS011;38503;48.544;12.142;2022-12-08T10:36:45;27.93;;;20.57;;
52608;SDS011;38503;48.544;12.142;2022-12-08T10:44:54;31.50;;;19.97;;
52608;SDS011;38503;48.544;12.142;2022-12-08T10:47:24;23.20;;;18.13;;
52608;SDS011;38503;48.544;12.142;2022-12-08T10:50:12;26.23;;;18.53;;
52608;SDS011;38503;48.544;12.142;2022-12-08T10:55:39;32.07;;;20.07;;
52608;SDS011;38503;48.544;12.142;2022-12-08T10:58:21;26.70;;;20.53;;
52608;SDS011;38503;48.544;12.142;2022-12-08T11:00:50;29.53;;;21.83;;
52608;SDS011;38503;48.544;12.142;2022-12-08T11:03:45;27.83;;;20.30;;
52608;SDS011;38503;48.544;12.142;2022-12-08T11:08:56;27.70;;;20.07;;
52608;SDS011;38503;48.544;12.142;2022-12-08T11:11:43;28.77;;;20.77;;
52608;SDS011;38503;48.544;12.142;2022-12-08T11:17:04;29.57;;;20.80;;
52608;SDS011;38503;48.544;12.142;2022-12-08T11:19:40;28.20;;;19.73;;
52608;SDS011;38503;48.544;12.142;2022-12-08T11:25:24;25.83;;;19.73;;
52608;SDS011;38503;48.544;12.142;2022-12-08T11:27:55;28.47;;;20.57;;
52608;SDS011;38503;48.544;12.142;2022-12-08T11:33:05;27.43;;;19.73;;
52608;SDS011;38503;48.544;12.142;2022-12-08T11:35:43;29.43;;;20.23;;
52608;SDS011;38503;48.544;12.142;2022-12-08T11:38:18;30.77;;;21.50;;
52608;SDS011;38503;48.544;12.142;2022-12-08T11:41:32;27.67;;;20.40;;
52608;SDS011;38503;48.544;12.142;2022-12-08T11:43:57;29.47;;;20.70;;
52608;SDS011;38503;48.544;12.142;2022-12-08T11:46:34;28.93;;;20.37;;
52608;SDS011;38503;48.544;12.142;2022-12-08T11:49:09;27.47;;;21.13;;
52608;SDS011;38503;48.544;12.142;2022-12-08T11:54:29;26.60;;;19.40;;
52608;SDS011;38503;48.544;12.142;2022-12-08T11:57:00;24.23;;;17.63;;
52608;SDS011;38503;48.544;12.142;2022-12-08T11:59:40;25.30;;;18.30;;
52608;SDS011;38503;48.544;12.142;2022-12-08T12:02:19;24.97;;;18.20;;
52608;SDS011;38503;48.544;12.142;2022-12-08T12:08:17;23.23;;;15.50;;
52608;SDS011;38503;48.544;12.142;2022-12-08T12:13:20;22.23;;;15.87;;
52608;SDS011;38503;48.544;12.142;2022-12-08T12:18:25;21.57;;;16.53;;
52608;SDS011;38503;48.544;12.142;2022-12-08T12:24:00;22.43;;;14.77;;
52608;SDS011;38503;48.544;12.142;2022-12-08T12:26:31;19.07;;;13.63;;
52608;SDS011;38503;48.544;12.142;2022-12-08T12:29:06;18.47;;;13.60;;
52608;SDS011;38503;48.544;12.142;2022-12-08T12:31:42;18.93;;;13.63;;
52608;SDS011;38503;48.544;12.142;2022-12-08T12:36:52;18.47;;;13.47;;
52608;SDS011;38503;48.544;12.142;2022-12-08T12:39:27;17.67;;;12.73;;
52608;SDS011;38503;48.544;12.142;2022-12-08T12:41:57;16.27;;;12.20;;
52608;SDS011;38503;48.544;12.142;2022-12-08T12:46:59;19.47;;;14.47;;
52608;SDS011;38503;48.544;12.142;2022-12-08T12:54:41;19.13;;;13.60;;
52608;SDS011;38503;48.544;12.142;2022-12-08T13:02:51;19.20;;;13.70;;
52608;SDS011;38503;48.544;12.142;2022-12-08T13:07:33;18.90;;;14.77;;
52608;SDS011;38503;48.544;12.142;2022-12-08T13:12:43;20.17;;;15.30;;
52608;SDS011;38503;48.544;12.142;2022-12-08T13:15:18;22.60;;;14.30;;
52608;SDS011;38503;48.544;12.142;2022-12-08T13:17:46;20.00;;;14.03;;
52608;SDS011;38503;48.544;12.142;2022-12-08T13:20:18;18.67;;;14.27;;
52608;SDS011;38503;48.544;12.142;2022-12-08T13:34:24;18.93;;;13.27;;
52608;SDS011;38503;48.544;12.142;2022-12-08T13:36:55;19.87;;;13.00;;
52608;SDS011;38503;48.544;12.142;2022-12-08T13:40:04;17.33;;;12.43;;
52608;SDS011;38503;48.544;12.142;2022-12-08T13:42:49;19.50;;;13.37;;
52608;SDS011;38503;48.544;12.142;2022-12-08T13:45:24;16.87;;;12.57;;
52608;SDS011;38503;48.544;12.142;2022-12-08T13:51:29;21.20;;;14.90;;
52608;SDS011;38503;48.544;12.142;2022-12-08T13:54:33;20.13;;;15.40;;
52608;SDS011;38503;48.544;12.142;2022-12-08T13:57:27;20.13;;;14.43;;
52608;SDS011;38503;48.544;12.142;2022-12-08T14:00:00;20.20;;;15.00;;
52608;SDS011;38503;48.544;12.142;2022-12-08T14:02:36;22.20;;;14.93;;
52608;SDS011;38503;48.544;12.142;2022-12-08T14:05:14;19.60;;;13.90;;
52608;SDS011;38503;48.544;12.142;2022-12-08T14:07:52;19.63;;;14.20;;
52608;SDS011;38503;48.544;12.142;2022-12-08T14:10:22;23.60;;;13.80;;
52608;SDS011;38503;48.544;12.142;2022-12-08T14:12:59;20.97;;;15.30;;
52608;SDS011;38503;48.544;12.142;2022-12-08T14:15:31;20.37;;;13.53;;
52608;SDS011;38503;48.544;12.142;2022-12-08T14:18:03;21.93;;;15.93;;
52608;SDS011;38503;48.544;12.142;2022-12-08T14:20:32;22.60;;;17.07;;
52608;SDS011;38503;48.544;12.142;2022-12-08T14:23:20;20.87;;;15.47;;
52608;SDS011;38503;48.544;12.142;2022-12-08T14:25:46;23.60;;;16.13;;
52608;SDS011;38503;48.544;12.142;2022-12-08T14:28:13;23.37;;;16.20;;
52608;SDS011;38503;48.544;12.142;2022-12-08T14:30:41;23.23;;;16.57;;
52608;SDS011;38503;48.544;12.142;2022-12-08T14:33:12;22.43;;;17.13;;
52608;SDS011;38503;48.544;12.142;2022-12-08T14:35:42;24.10;;;16.37;;
52608;SDS011;38503;48.544;12.142;2022-12-08T14:38:16;22.53;;;16.53;;
52608;SDS011;38503;48.544;12.142;2022-12-08T14:40:46;22.93;;;16.37;;
52608;SDS011;38503;48.544;12.142;2022-12-08T14:43:27;24.17;;;17.53;;
52608;SDS011;38503;48.544;12.142;2022-12-08T14:46:02;23.77;;;16.43;;
52608;SDS011;38503;48.544;12.142;2022-12-08T14:53:53;25.37;;;18.37;;
52608;SDS011;38503;48.544;12.142;2022-12-08T14:56:27;25.40;;;17.87;;
52608;SDS011;38503;48.544;12.142;2022-12-08T14:59:13;26.40;;;18.33;;
52608;SDS011;38503;48.544;12.142;2022-12-08T15:01:44;26.57;;;18.93;;
52608;SDS011;38503;48.544;12.142;2022-12-08T15:09:38;24.23;;;18.23;;
52608;SDS011;38503;48.544;12.142;2022-12-08T15:14:40;27.50;;;18.57;;
52608;SDS011;38503;48.544;12.142;2022-12-08T15:20:00;26.80;;;18.70;;
52608;SDS011;38503;48.544;12.142;2022-12-08T15:22:28;26.80;;;17.63;;
52608;SDS011;38503;48.544;12.142;2022-12-08T15:24:56;25.23;;;18.47;;
52608;SDS011;38503;48.544;12.142;2022-12-08T15:27:24;26.40;;;18.57;;
52608;SDS011;38503;48.544;12.142;2022-12-08T15:29:51;25.33;;;18.67;;
52608;SDS011;38503;48.544;12.142;2022-12-08T15:32:20;26.50;;;18.70;;
52608;SDS011;38503;48.544;12.142;2022-12-08T15:34:48;28.37;;;19.33;;
52608;SDS011;38503;48.544;12.142;2022-12-08T15:37:19;27.50;;;19.60;;
52608;SDS011;38503;48.544;12.142;2022-12-08T15:39:51;24.90;;;17.53;;
52608;SDS011;38503;48.544;12.142;2022-12-08T15:42:18;28.13;;;18.07;;
52608;SDS011;38503;48.544;12.142;2022-12-08T15:44:45;29.93;;;18.73;;
52608;SDS011;38503;48.544;12.142;2022-12-08T15:47:21;26.03;;;18.40;;
52608;SDS011;38503;48.544;12.142;2022-12-08T15:49:50;23.70;;;17.17;;
52608;SDS011;38503;48.544;12.142;2022-12-08T15:52:22;31.20;;;19.17;;
52608;SDS011;38503;48.544;12.142;2022-12-08T15:54:49;26.93;;;19.00;;
52608;SDS011;38503;48.544;12.142;2022-12-08T15:57:23;28.10;;;18.03;;
52608;SDS011;38503;48.544;12.142;2022-12-08T16:00:33;28.87;;;19.33;;
52608;SDS011;38503;48.544;12.142;2022-12-08T16:03:26;23.63;;;17.77;;
52608;SDS011;38503;48.544;12.142;2022-12-08T16:06:15;25.47;;;17.23;;
52608;SDS011;38503;48.544;12.142;2022-12-08T16:09:04;25.20;;;18.10;;
52608;SDS011;38503;48.544;12.142;2022-12-08T16:11:38;32.20;;;18.87;;
52608;SDS011;38503;48.544;12.142;2022-12-08T16:14:34;31.93;;;18.97;;
52608;SDS011;38503;48.544;12.142;2022-12-08T16:17:21;25.20;;;17.60;;
52608;SDS011;38503;48.544;12.142;2022-12-08T16:19:48;25.83;;;18.53;;
52608;SDS011;38503;48.544;12.142;2022-12-08T16:22:19;28.73;;;19.30;;
52608;SDS011;38503;48.544;12.142;2022-12-08T16:25:11;26.60;;;17.80;;
52608;SDS011;38503;48.544;12.142;2022-12-08T16:27:56;28.42;;;22.35;;
52608;SDS011;38503;48.544;12.142;2022-12-08T16:30:33;27.53;;;19.63;;
52608;SDS011;38503;48.544;12.142;2022-12-08T16:33:01;30.13;;;19.00;;
52608;SDS011;38503;48.544;12.142;2022-12-08T16:35:28;28.17;;;19.93;;
52608;SDS011;38503;48.544;12.142;2022-12-08T16:37:55;31.13;;;21.37;;
52608;SDS011;38503;48.544;12.142;2022-12-08T16:40:22;32.43;;;21.17;;
52608;SDS011;38503;48.544;12.142;2022-12-08T16:42:49;30.73;;;21.30;;
52608;SDS011;38503;48.544;12.142;2022-12-08T16:45:20;29.03;;;21.07;;
52608;SDS011;38503;48.544;12.142;2022-12-08T16:47:50;37.67;;;22.17;;
52608;SDS011;38503;48.544;12.142;2022-12-08T16:50:20;33.40;;;20.17;;
52608;SDS011;38503;48.544;12.142;2022-12-08T16:52:50;28.60;;;21.40;;
52608;SDS011;38503;48.544;12.142;2022-12-08T16:55:25;31.57;;;22.13;;
52608;SDS011;38503;48.544;12.142;2022-12-08T16:57:52;33.03;;;21.33;;
52608;SDS011;38503;48.544;12.142;2022-12-08T17:00:20;28.83;;;19.57;;
52608;SDS011;38503;48.544;12.142;2022-12-08T17:02:49;28.93;;;18.63;;
52608;SDS011;38503;48.544;12.142;2022-12-08T17:05:18;27.03;;;19.10;;
52608;SDS011;38503;48.544;12.142;2022-12-08T17:07:47;24.73;;;17.77;;
52608;SDS011;38503;48.544;12.142;2022-12-08T17:10:26;27.70;;;18.87;;
52608;SDS011;38503;48.544;12.142;2022-12-08T17:12:54;26.40;;;18.37;;
52608;SDS011;38503;48.544;12.142;2022-12-08T17:15:23;24.90;;;18.03;;
52608;SDS011;38503;48.544;12.142;2022-12-08T17:17:51;27.97;;;18.40;;
52608;SDS011;38503;48.544;12.142;2022-12-08T17:20:19;26.67;;;18.20;;
52608;SDS011;38503;48.544;12.142;2022-12-08T17:22:48;29.07;;;20.93;;
52608;SDS011;38503;48.544;12.142;2022-12-08T17:25:15;31.33;;;21.97;;
52608;SDS011;38503;48.544;12.142;2022-12-08T17:27:42;29.53;;;20.70;;
52608;SDS011;38503;48.544;12.142;2022-12-08T17:30:09;33.93;;;24.13;;
52608;SDS011;38503;48.544;12.142;2022-12-08T17:32:40;38.07;;;24.90;;
52608;SDS011;38503;48.544;12.142;2022-12-08T17:35:09;39.03;;;25.60;;
52608;SDS011;38503;48.544;12.142;2022-12-08T17:37:36;34.87;;;25.17;;
52608;SDS011;38503;48.544;12.142;2022-12-08T17:40:03;36.70;;;26.47;;
52608;SDS011;38503;48.544;12.142;2022-12-08T17:42:31;36.00;;;26.07;;
52608;SDS011;38503;48.544;12.142;2022-12-08T17:44:58;37.73;;;26.17;;
52608;SDS011;38503;48.544;12.142;2022-12-08T17:47:25;39.13;;;26.60;;
52608;SDS011;38503;48.544;12.142;2022-12-08T17:49:52;61.67;;;40.13;;
52608;SDS011;38503;48.544;12.142;2022-12-08T17:52:19;84.23;;;50.57;;
52608;SDS011;38503;48.544;12.142;2022-12-08T17:54:45;104.40;;;53.97;;